Time;durP1;ratioP1;P1;durP2;ratioP2;P2;SDS_P1;SDS_P2;PMS_P1;PMS_P2;Temp;Humidity;BMP_temperature;BMP_pressure;BME280_temperature;BME280_humidity;BME280_pressure;Samples;Min_cycle;Max_cycle;Signal;HPM_P1;HPM_P2
2022/03/27 00:01:24;;;;;;;24.70;10.67;;;11.40;97.30;;;;;;4992761;28;20428;-79
2022/03/27 00:03:50;;;;;;;19.70;9.03;;;11.40;97.30;;;;;;4993565;28;20966;-79
2022/03/27 00:06:16;;;;;;;21.20;9.80;;;11.40;97.30;;;;;;4993238;28;20465;-79
2022/03/27 00:08:41;;;;;;;20.03;9.10;;;11.40;97.30;;;;;;4994826;28;20181;-79
2022/03/27 00:11:26;;;;;;;21.33;9.43;;;11.40;97.30;;;;;;4993801;28;20189;-79
2022/03/27 00:13:53;;;;;;;22.17;9.40;;;11.30;97.30;;;;;;4993596;28;20217;-79
2022/03/27 00:16:19;;;;;;;24.10;9.83;;;11.30;97.30;;;;;;4994798;28;20421;-79
2022/03/27 00:18:44;;;;;;;17.97;8.10;;;11.20;97.30;;;;;;4994499;28;20567;-79
2022/03/27 00:21:10;;;;;;;23.13;10.17;;;11.20;97.30;;;;;;4993783;28;20201;-79
2022/03/27 00:23:37;;;;;;;18.40;9.43;;;11.20;97.30;;;;;;4993786;28;20686;-79
2022/03/27 00:26:03;;;;;;;17.93;8.57;;;11.20;97.30;;;;;;4993892;28;20440;-79
2022/03/27 00:28:32;;;;;;;24.70;10.57;;;11.20;97.30;;;;;;4993900;28;20428;-79
2022/03/27 00:31:04;;;;;;;24.17;10.50;;;11.20;97.30;;;;;;4993889;28;20417;-79
2022/03/27 00:33:30;;;;;;;25.43;11.50;;;11.20;97.30;;;;;;4993794;28;20557;-80
2022/03/27 00:35:57;;;;;;;20.63;9.50;;;11.20;97.30;;;;;;4993924;28;20519;-79
2022/03/27 00:38:23;;;;;;;23.60;9.57;;;11.20;97.30;;;;;;4993815;28;20428;-79
2022/03/27 00:40:52;;;;;;;23.33;11.03;;;11.10;97.30;;;;;;4995137;28;20416;-79
2022/03/27 00:43:22;;;;;;;26.07;10.57;;;11.10;97.30;;;;;;4995586;28;20441;-80
2022/03/27 00:45:48;;;;;;;23.90;11.23;;;11.00;97.30;;;;;;4994104;28;20850;-79
2022/03/27 00:48:14;;;;;;;26.50;11.80;;;11.00;97.30;;;;;;4994458;28;20500;-79
2022/03/27 00:50:41;;;;;;;23.80;9.80;;;11.00;97.30;;;;;;4993981;28;20802;-79
2022/03/27 00:53:08;;;;;;;21.03;9.73;;;10.90;97.30;;;;;;5001351;28;20480;-80
2022/03/27 00:55:33;;;;;;;18.93;9.83;;;10.80;97.30;;;;;;5011370;28;20785;-80
2022/03/27 00:57:59;;;;;;;22.43;10.00;;;10.80;97.30;;;;;;5012301;28;20404;-80
2022/03/27 01:00:46;;;;;;;27.07;11.73;;;10.70;97.30;;;;;;5010842;28;20447;-80
2022/03/27 01:03:14;;;;;;;26.03;10.60;;;10.70;97.30;;;;;;5005155;28;20224;-80
2022/03/27 01:05:41;;;;;;;28.73;11.93;;;10.60;97.30;;;;;;4991176;28;20461;-79
2022/03/27 01:08:08;;;;;;;21.60;10.67;;;10.50;97.30;;;;;;5004577;28;20846;-79
2022/03/27 01:10:35;;;;;;;24.97;10.80;;;10.40;97.30;;;;;;4990910;28;20421;-80
2022/03/27 01:13:16;;;;;;;23.53;10.67;;;10.30;97.30;;;;;;4990055;28;20461;-79
2022/03/27 01:15:49;;;;;;;20.50;10.67;;;10.30;97.30;;;;;;4989629;28;20433;-79
2022/03/27 01:18:16;;;;;;;28.60;11.27;;;10.20;97.30;;;;;;4990090;28;20483;-79
2022/03/27 01:20:42;;;;;;;22.80;10.60;;;10.20;97.30;;;;;;4989625;28;20412;-80
2022/03/27 01:23:10;;;;;;;20.77;10.30;;;10.20;97.30;;;;;;4991975;28;20201;-79
2022/03/27 01:25:37;;;;;;;27.53;11.77;;;10.20;97.30;;;;;;5002926;28;20469;-79
2022/03/27 01:28:04;;;;;;;25.00;10.70;;;10.10;97.30;;;;;;4989972;28;20908;-78
2022/03/27 01:30:29;;;;;;;25.83;11.27;;;10.10;97.30;;;;;;4990039;28;20462;-80
2022/03/27 01:32:55;;;;;;;26.43;11.63;;;10.10;97.30;;;;;;4989263;28;20535;-78
2022/03/27 01:35:22;;;;;;;27.73;11.87;;;10.00;97.30;;;;;;4971817;28;20174;-80
2022/03/27 01:37:48;;;;;;;27.50;11.30;;;10.00;97.30;;;;;;4970876;28;20417;-79
2022/03/27 01:40:15;;;;;;;26.57;11.70;;;10.00;97.30;;;;;;4982602;28;20481;-79
2022/03/27 01:42:41;;;;;;;25.83;12.43;;;9.90;97.30;;;;;;4973540;28;20429;-79
2022/03/27 01:45:09;;;;;;;23.83;10.03;;;9.90;97.30;;;;;;4984771;28;20429;-78
2022/03/27 01:47:36;;;;;;;20.47;9.80;;;9.80;97.30;;;;;;4988179;28;20424;-78
2022/03/27 01:50:02;;;;;;;23.63;10.20;;;9.70;97.30;;;;;;4991147;28;20413;-78
2022/03/27 01:52:28;;;;;;;30.63;11.40;;;9.70;97.30;;;;;;4990603;28;20456;-78
2022/03/27 01:54:54;;;;;;;25.93;11.40;;;9.70;97.30;;;;;;4991467;28;20494;-79
2022/03/27 01:57:20;;;;;;;27.30;10.57;;;9.60;97.30;;;;;;4992708;28;20181;-80
2022/03/27 01:59:45;;;;;;;30.67;11.83;;;9.60;97.30;;;;;;5007005;28;20429;-78
2022/03/27 02:02:11;;;;;;;26.37;10.97;;;9.60;97.30;;;;;;4977190;28;20189;-79
2022/03/27 02:04:37;;;;;;;26.97;10.83;;;9.60;97.30;;;;;;4979363;28;20777;-78
2022/03/27 02:07:03;;;;;;;27.57;11.53;;;9.60;97.30;;;;;;4972687;28;20422;-78
2022/03/27 02:09:29;;;;;;;27.97;11.77;;;9.50;97.30;;;;;;4983297;28;20178;-79
2022/03/27 02:11:54;;;;;;;23.73;10.90;;;9.50;97.30;;;;;;4983307;28;20526;-80
2022/03/27 02:14:20;;;;;;;26.20;11.87;;;9.40;97.30;;;;;;4991439;28;20197;-80
2022/03/27 02:16:46;;;;;;;23.17;10.17;;;9.40;97.30;;;;;;4981123;28;20185;-79
2022/03/27 02:19:11;;;;;;;26.23;10.67;;;9.30;97.30;;;;;;4983893;28;20182;-79
2022/03/27 02:21:38;;;;;;;28.60;12.27;;;9.30;97.30;;;;;;4989055;28;20178;-80
2022/03/27 02:24:04;;;;;;;26.90;11.90;;;9.30;97.30;;;;;;4983151;28;20296;-79
2022/03/27 02:26:31;;;;;;;22.23;10.50;;;9.30;97.30;;;;;;4976849;28;20417;-77
2022/03/27 02:28:56;;;;;;;28.57;11.97;;;9.30;97.30;;;;;;4991831;28;20500;-77
2022/03/27 02:31:22;;;;;;;24.93;11.20;;;9.30;97.30;;;;;;4992019;28;20856;-78
2022/03/27 02:33:48;;;;;;;21.77;10.90;;;9.20;97.30;;;;;;4992094;28;20213;-78
2022/03/27 02:36:15;;;;;;;31.53;12.90;;;9.10;97.30;;;;;;4989552;28;20177;-78
2022/03/27 02:38:41;;;;;;;28.33;12.60;;;9.10;97.30;;;;;;4979925;28;20418;-78
2022/03/27 02:41:07;;;;;;;28.53;11.47;;;9.00;97.30;;;;;;4983162;28;20584;-79
2022/03/27 02:43:33;;;;;;;26.20;12.30;;;8.90;97.30;;;;;;4980306;28;20800;-80
2022/03/27 02:45:59;;;;;;;27.53;12.10;;;8.90;97.30;;;;;;4975721;28;20429;-79
2022/03/27 02:48:26;;;;;;;30.57;11.97;;;8.80;97.30;;;;;;4979991;28;20789;-79
2022/03/27 02:50:51;;;;;;;30.60;12.73;;;8.70;97.30;;;;;;4981140;28;20692;-80
2022/03/27 02:53:17;;;;;;;26.87;12.07;;;8.60;97.30;;;;;;4981339;28;20499;-77
2022/03/27 02:55:42;;;;;;;30.97;13.00;;;8.50;97.30;;;;;;4990707;28;20178;-75
2022/03/27 02:58:09;;;;;;;28.77;11.63;;;8.40;97.30;;;;;;4991387;28;20545;-75
2022/03/27 03:00:35;;;;;;;29.37;11.17;;;8.40;97.30;;;;;;4992521;28;20170;-76
2022/03/27 03:03:00;;;;;;;26.53;10.77;;;8.20;97.30;;;;;;4993008;28;20427;-76
2022/03/27 03:05:26;;;;;;;26.70;10.47;;;8.20;97.30;;;;;;5010933;28;20240;-75
2022/03/27 03:07:52;;;;;;;24.90;11.13;;;8.10;97.30;;;;;;4994566;28;20182;-76
2022/03/27 03:10:17;;;;;;;26.93;12.07;;;8.00;97.30;;;;;;4991766;28;20217;-79
2022/03/27 03:12:43;;;;;;;30.23;12.37;;;7.90;97.30;;;;;;4984912;28;20213;-77
2022/03/27 03:15:09;;;;;;;24.57;12.47;;;7.80;97.30;;;;;;4983185;28;20187;-77
2022/03/27 03:17:36;;;;;;;35.93;11.97;;;7.80;97.30;;;;;;4996156;28;20196;-77
2022/03/27 03:20:02;;;;;;;31.60;11.50;;;7.90;97.30;;;;;;4994140;28;20845;-77
2022/03/27 03:22:28;;;;;;;29.43;12.07;;;7.80;97.30;;;;;;4994891;28;20425;-77
2022/03/27 03:24:54;;;;;;;25.90;11.70;;;7.80;97.30;;;;;;4990283;28;20446;-77
2022/03/27 03:27:20;;;;;;;27.33;11.87;;;7.80;97.30;;;;;;4980529;28;20508;-78
2022/03/27 03:29:46;;;;;;;28.23;11.97;;;7.70;97.30;;;;;;4977981;28;20707;-78
2022/03/27 03:32:12;;;;;;;28.40;11.73;;;7.70;97.30;;;;;;4984541;28;20460;-78
2022/03/27 03:34:39;;;;;;;31.43;11.67;;;7.70;97.30;;;;;;4988360;28;20500;-77
2022/03/27 03:37:04;;;;;;;27.33;12.57;;;7.60;97.30;;;;;;4986594;28;20425;-77
2022/03/27 03:39:30;;;;;;;25.70;11.50;;;7.50;97.30;;;;;;4983301;28;20940;-79
2022/03/27 03:41:56;;;;;;;34.70;12.53;;;7.50;97.30;;;;;;4988625;28;20182;-77
2022/03/27 03:44:21;;;;;;;29.70;12.40;;;7.40;97.30;;;;;;4985253;28;20710;-77
2022/03/27 03:46:48;;;;;;;29.07;12.90;;;7.40;97.30;;;;;;4985337;28;20182;-77
2022/03/27 03:49:14;;;;;;;32.27;13.83;;;7.40;97.30;;;;;;4987752;28;20189;-76
2022/03/27 03:51:41;;;;;;;34.47;11.70;;;7.30;97.30;;;;;;4977853;28;20777;-77
2022/03/27 03:54:07;;;;;;;30.90;11.87;;;7.30;97.30;;;;;;4983233;28;20524;-78
2022/03/27 03:56:38;;;;;;;30.13;10.93;;;7.30;97.30;;;;;;4987101;28;20871;-77
2022/03/27 03:59:04;;;;;;;31.47;13.57;;;7.20;97.30;;;;;;4993959;28;20436;-76
2022/03/27 04:01:29;;;;;;;27.93;11.73;;;7.10;97.30;;;;;;4993984;28;20462;-77
2022/03/27 04:03:55;;;;;;;34.00;12.90;;;7.10;97.30;;;;;;4993697;28;20209;-76
2022/03/27 04:06:22;;;;;;;33.53;13.07;;;7.00;97.30;;;;;;4987028;28;20233;-76
2022/03/27 04:08:48;;;;;;;29.30;12.43;;;7.00;97.30;;;;;;4978283;28;20268;-77
2022/03/27 04:11:16;;;;;;;29.63;13.13;;;6.90;97.30;;;;;;4986602;28;20508;-76
2022/03/27 04:13:46;;;;;;;26.83;10.90;;;6.80;97.30;;;;;;4981784;28;20376;-77
2022/03/27 04:16:12;;;;;;;34.47;13.80;;;6.70;97.30;;;;;;4985955;28;20425;-77
2022/03/27 04:18:38;;;;;;;38.23;14.80;;;6.60;97.30;;;;;;4983876;28;20958;-76
2022/03/27 04:21:04;;;;;;;34.37;13.00;;;6.60;97.30;;;;;;4984012;28;20523;-77
2022/03/27 04:23:30;;;;;;;32.47;13.17;;;6.60;97.30;;;;;;4990342;28;20198;-78
2022/03/27 04:25:56;;;;;;;31.47;13.70;;;6.60;97.30;;;;;;4987948;28;20232;-77
2022/03/27 04:28:21;;;;;;;31.37;14.83;;;6.60;97.30;;;;;;4980927;28;20519;-77
2022/03/27 04:30:47;;;;;;;33.47;12.63;;;6.50;97.30;;;;;;4990100;28;20192;-76
2022/03/27 04:33:12;;;;;;;31.87;13.53;;;6.50;97.30;;;;;;4991000;28;20220;-76
2022/03/27 04:35:38;;;;;;;31.37;13.30;;;6.50;97.30;;;;;;4976789;28;20185;-76
2022/03/27 04:38:05;;;;;;;36.30;12.80;;;6.50;97.30;;;;;;4992763;28;20178;-76
2022/03/27 04:40:31;;;;;;;34.20;13.20;;;6.50;97.30;;;;;;4988808;28;20185;-77
2022/03/27 04:42:57;;;;;;;32.03;13.30;;;6.50;97.30;;;;;;4991293;28;20568;-78
2022/03/27 04:45:23;;;;;;;27.50;13.33;;;6.40;97.30;;;;;;4985506;28;20426;-77
2022/03/27 04:47:48;;;;;;;29.23;13.07;;;6.40;97.30;;;;;;4991074;28;20989;-78
2022/03/27 04:50:14;;;;;;;31.67;13.00;;;6.40;97.30;;;;;;4991670;28;20208;-77
2022/03/27 04:52:40;;;;;;;33.93;13.23;;;6.30;97.30;;;;;;4988649;28;20210;-77
2022/03/27 04:55:07;;;;;;;31.73;12.90;;;6.30;97.30;;;;;;4987453;28;20309;-78
2022/03/27 04:57:38;;;;;;;32.97;14.27;;;6.20;97.30;;;;;;4980857;28;20456;-76
2022/03/27 05:00:11;;;;;;;34.53;14.37;;;6.20;97.30;;;;;;4984631;28;20417;-77
2022/03/27 05:02:42;;;;;;;34.57;14.20;;;6.20;97.30;;;;;;4983352;28;20425;-77
2022/03/27 05:05:10;;;;;;;29.23;12.30;;;6.10;97.30;;;;;;4983104;28;20991;-78
2022/03/27 05:07:36;;;;;;;30.50;12.50;;;6.10;97.30;;;;;;4982214;28;20856;-77
2022/03/27 05:10:06;;;;;;;31.23;12.53;;;6.10;97.30;;;;;;4982116;28;20531;-77
2022/03/27 05:12:32;;;;;;;27.53;11.70;;;6.10;97.30;;;;;;4985246;28;20461;-79
2022/03/27 05:14:58;;;;;;;34.07;12.73;;;6.00;97.30;;;;;;4988124;28;20620;-77
2022/03/27 05:17:23;;;;;;;30.23;12.70;;;6.00;97.30;;;;;;4988194;28;20182;-78
2022/03/27 05:19:49;;;;;;;26.93;11.23;;;6.00;97.30;;;;;;4983261;28;20202;-77
2022/03/27 05:22:15;;;;;;;31.73;13.50;;;6.00;97.30;;;;;;4992067;28;20220;-78
2022/03/27 05:24:41;;;;;;;34.90;11.87;;;6.00;97.30;;;;;;4990040;28;20676;-79
2022/03/27 05:27:06;;;;;;;30.37;11.83;;;5.90;97.30;;;;;;4977026;28;20496;-77
2022/03/27 05:29:32;;;;;;;26.23;12.47;;;5.90;97.30;;;;;;4994310;28;20213;-78
2022/03/27 05:31:58;;;;;;;31.30;12.40;;;5.90;97.30;;;;;;4978463;28;20190;-79
2022/03/27 05:34:24;;;;;;;26.43;11.03;;;5.90;97.30;;;;;;4969968;28;20194;-78
2022/03/27 05:36:50;;;;;;;34.33;12.53;;;5.90;97.30;;;;;;4977470;28;20420;-79
2022/03/27 05:39:16;;;;;;;28.73;10.97;;;5.90;97.30;;;;;;4980577;28;20434;-79
2022/03/27 05:41:42;;;;;;;25.07;10.60;;;5.90;97.30;;;;;;4983341;28;20877;-77
2022/03/27 05:44:08;;;;;;;26.17;11.10;;;6.00;97.30;;;;;;4987553;28;20444;-78
2022/03/27 05:46:34;;;;;;;26.20;11.63;;;6.00;97.30;;;;;;4982682;28;21089;-77
2022/03/27 05:48:59;;;;;;;24.40;10.80;;;5.90;97.30;;;;;;4979246;28;20177;-79
2022/03/27 05:51:25;;;;;;;28.23;11.40;;;5.90;97.30;;;;;;4979154;28;20995;-77
2022/03/27 05:53:51;;;;;;;25.53;10.50;;;6.00;97.30;;;;;;4985816;28;20218;-77
2022/03/27 05:56:16;;;;;;;29.63;12.47;;;6.00;97.30;;;;;;4975536;28;20328;-77
2022/03/27 05:58:42;;;;;;;27.63;13.10;;;6.00;97.30;;;;;;4988103;28;20551;-77
2022/03/27 06:01:08;;;;;;;26.40;10.93;;;6.10;97.30;;;;;;4985826;28;20261;-78
2022/03/27 06:03:33;;;;;;;33.37;11.63;;;6.10;97.30;;;;;;4992546;28;20201;-78
2022/03/27 06:05:59;;;;;;;25.73;11.60;;;6.20;97.30;;;;;;4989751;28;20265;-78
2022/03/27 06:08:25;;;;;;;23.20;10.77;;;6.30;97.30;;;;;;4990946;28;20189;-77
2022/03/27 06:10:51;;;;;;;27.60;11.10;;;6.30;97.30;;;;;;4984640;28;20187;-77
2022/03/27 06:13:17;;;;;;;26.50;11.13;;;6.40;97.30;;;;;;4973509;28;20775;-79
2022/03/27 06:15:43;;;;;;;26.50;10.87;;;6.40;97.30;;;;;;4979603;28;20711;-77
2022/03/27 06:18:10;;;;;;;25.87;11.50;;;6.50;97.30;;;;;;4984157;28;20414;-78
2022/03/27 06:20:37;;;;;;;25.63;10.67;;;6.50;97.30;;;;;;4980407;28;20278;-77
2022/03/27 06:23:03;;;;;;;24.67;10.90;;;6.60;97.30;;;;;;4981086;28;20450;-78
2022/03/27 06:25:29;;;;;;;27.87;13.13;;;6.70;97.30;;;;;;4977988;28;20425;-77
2022/03/27 06:27:56;;;;;;;26.63;11.37;;;6.80;97.30;;;;;;4986341;28;20425;-78
2022/03/27 06:30:26;;;;;;;26.77;12.90;;;6.90;97.30;;;;;;4981234;28;20429;-77
2022/03/27 06:32:53;;;;;;;24.30;11.23;;;7.00;97.30;;;;;;4976517;28;20464;-77
2022/03/27 06:35:21;;;;;;;29.87;12.33;;;7.10;97.30;;;;;;4979769;28;20838;-79
2022/03/27 06:37:47;;;;;;;24.47;10.80;;;7.20;97.30;;;;;;4987615;28;20725;-77
2022/03/27 06:40:14;;;;;;;27.77;11.63;;;7.30;97.30;;;;;;4988017;28;20416;-79
2022/03/27 06:42:42;;;;;;;24.00;10.40;;;7.40;97.30;;;;;;4984526;28;20436;-79
2022/03/27 06:45:08;;;;;;;24.37;10.67;;;7.50;97.30;;;;;;4985239;28;20805;-77
2022/03/27 06:47:34;;;;;;;27.73;10.60;;;7.70;97.30;;;;;;4987979;28;20431;-78
2022/03/27 06:50:02;;;;;;;23.70;10.53;;;7.80;97.30;;;;;;4984516;28;20801;-78
2022/03/27 06:52:28;;;;;;;25.07;9.63;;;7.90;97.30;;;;;;4987800;28;20298;-79
2022/03/27 06:54:54;;;;;;;21.60;9.27;;;8.00;97.30;;;;;;4991201;28;20451;-76
2022/03/27 06:57:20;;;;;;;22.20;9.23;;;8.10;97.30;;;;;;4987356;28;20421;-77
2022/03/27 07:05:15;;;;;;;23.50;9.80;;;8.50;97.30;;;;;;4984192;28;20476;-77
2022/03/27 07:07:43;;;;;;;18.97;9.70;;;8.60;97.30;;;;;;4994586;28;20418;-77
2022/03/27 07:10:12;;;;;;;16.43;9.40;;;8.80;97.30;;;;;;4995037;28;20575;-77
2022/03/27 07:12:38;;;;;;;22.43;9.77;;;9.00;97.30;;;;;;4994705;28;20465;-77
2022/03/27 07:15:05;;;;;;;18.23;8.77;;;9.10;97.30;;;;;;4994209;28;20444;-77
2022/03/27 07:17:31;;;;;;;19.53;8.97;;;9.20;97.30;;;;;;4999063;28;21008;-77
2022/03/27 07:19:56;;;;;;;17.07;8.70;;;9.40;97.30;;;;;;4994614;28;20452;-77
2022/03/27 07:22:22;;;;;;;17.53;8.83;;;9.50;97.30;;;;;;5010695;28;20659;-77
2022/03/27 07:24:48;;;;;;;14.70;7.87;;;9.70;97.30;;;;;;5010733;28;20197;-77
2022/03/27 07:27:14;;;;;;;17.70;8.70;;;9.80;97.30;;;;;;5006394;28;20175;-77
2022/03/27 07:29:40;;;;;;;23.33;9.13;;;10.00;97.30;;;;;;4990836;28;20792;-78
2022/03/27 07:32:06;;;;;;;16.07;8.60;;;10.10;97.30;;;;;;4993248;28;20516;-78
2022/03/27 07:34:33;;;;;;;15.47;8.03;;;10.20;97.30;;;;;;5001064;28;20209;-77
2022/03/27 07:36:59;;;;;;;18.80;8.33;;;10.30;97.30;;;;;;4997622;28;20424;-77
2022/03/27 07:39:25;;;;;;;15.77;8.27;;;10.50;97.30;;;;;;4993956;28;20757;-77
2022/03/27 07:41:51;;;;;;;21.40;8.13;;;10.60;97.30;;;;;;4995565;28;20550;-77
2022/03/27 07:44:16;;;;;;;16.90;7.83;;;10.70;97.30;;;;;;4994216;28;20617;-78
2022/03/27 07:46:42;;;;;;;17.73;9.00;;;10.80;97.30;;;;;;5000185;28;20636;-77
2022/03/27 07:49:08;;;;;;;15.93;8.50;;;10.90;97.30;;;;;;5012610;28;20193;-77
2022/03/27 07:51:34;;;;;;;17.60;8.80;;;11.00;97.30;;;;;;5013837;28;20182;-78
2022/03/27 07:54:00;;;;;;;16.43;8.60;;;11.10;97.30;;;;;;5013665;28;20838;-78
2022/03/27 07:56:26;;;;;;;16.03;8.60;;;11.20;97.30;;;;;;5013733;28;20443;-77
2022/03/27 07:58:53;;;;;;;17.33;8.43;;;11.30;97.30;;;;;;5013692;28;20499;-78
2022/03/27 08:01:18;;;;;;;19.10;9.20;;;11.40;97.30;;;;;;5013599;28;20177;-78
2022/03/27 08:03:44;;;;;;;20.50;9.03;;;11.60;97.30;;;;;;5013563;28;20442;-78
2022/03/27 08:06:10;;;;;;;19.30;8.30;;;11.80;97.30;;;;;;5013446;28;20243;-78
2022/03/27 08:08:36;;;;;;;18.20;8.20;;;11.80;97.30;;;;;;5013613;28;20799;-78
2022/03/27 08:11:02;;;;;;;22.33;9.57;;;11.90;97.30;;;;;;5013442;28;20208;-78
2022/03/27 08:13:28;;;;;;;17.07;8.00;;;12.00;97.30;;;;;;5013208;28;20216;-78
2022/03/27 08:15:54;;;;;;;19.57;9.47;;;12.10;97.30;;;;;;5014466;28;20408;-78
2022/03/27 08:18:20;;;;;;;16.60;7.93;;;12.30;97.30;;;;;;5014922;28;20419;-78
2022/03/27 08:20:46;;;;;;;19.57;9.10;;;12.40;97.10;;;;;;5013224;28;20180;-78
2022/03/27 08:23:12;;;;;;;16.73;8.93;;;12.30;96.80;;;;;;5013198;28;20535;-78
2022/03/27 08:28:22;;;;;;;16.40;7.40;;;12.50;96.80;;;;;;5014672;28;20447;-78
2022/03/27 08:30:49;;;;;;;17.30;8.43;;;12.60;96.70;;;;;;5014257;28;20435;-78
2022/03/27 08:33:15;;;;;;;16.70;8.77;;;12.70;96.40;;;;;;5012904;28;20464;-78
2022/03/27 08:35:42;;;;;;;15.00;8.30;;;12.70;95.90;;;;;;5014280;28;20499;-78
2022/03/27 08:38:09;;;;;;;19.67;9.57;;;12.70;95.50;;;;;;4995482;28;20452;-78
2022/03/27 08:40:38;;;;;;;15.20;8.97;;;12.70;95.70;;;;;;4994534;28;20413;-78
2022/03/27 08:43:10;;;;;;;14.80;8.60;;;12.80;95.60;;;;;;5007157;28;20488;-78
2022/03/27 08:45:36;;;;;;;15.20;8.63;;;13.00;95.80;;;;;;5009701;28;20412;-78
2022/03/27 08:48:04;;;;;;;14.97;8.10;;;13.10;95.60;;;;;;5009470;28;20934;-78
2022/03/27 08:50:31;;;;;;;15.70;7.47;;;13.10;94.80;;;;;;5009438;28;20413;-78
2022/03/27 08:53:01;;;;;;;18.00;7.80;;;13.30;94.10;;;;;;4987914;28;20628;-78
2022/03/27 08:55:38;;;;;;;14.60;7.83;;;13.30;93.80;;;;;;4981277;28;20420;-78
2022/03/27 08:58:04;;;;;;;20.07;9.90;;;13.40;94.30;;;;;;5020796;28;20960;-78
2022/03/27 09:00:31;;;;;;;14.63;7.60;;;13.50;95.00;;;;;;5012442;28;20500;-79
2022/03/27 09:02:58;;;;;;;14.33;7.47;;;13.70;94.50;;;;;;5012740;28;20964;-79
2022/03/27 09:05:24;;;;;;;20.27;8.90;;;13.60;93.50;;;;;;5013621;28;20519;-79
2022/03/27 09:07:52;;;;;;;11.10;6.23;;;13.60;93.70;;;;;;5012735;28;20427;-79
2022/03/27 09:10:18;;;;;;;14.27;8.33;;;13.60;93.50;;;;;;5012587;28;20566;-78
2022/03/27 09:12:44;;;;;;;17.57;9.03;;;13.60;92.90;;;;;;5012335;28;20797;-79
2022/03/27 09:15:11;;;;;;;15.43;6.90;;;13.60;92.10;;;;;;5008952;28;20419;-79
2022/03/27 09:17:58;;;;;;;16.83;7.53;;;13.60;91.20;;;;;;4994052;28;20445;-78
2022/03/27 09:20:42;;;;;;;13.57;7.97;;;13.60;92.40;;;;;;5008964;28;20428;-76
2022/03/27 09:23:21;;;;;;;14.13;6.80;;;13.70;92.60;;;;;;5019374;28;20453;-80
2022/03/27 09:26:01;;;;;;;12.73;5.90;;;13.80;92.20;;;;;;4987244;28;20942;-80
2022/03/27 09:28:47;;;;;;;16.63;7.00;;;14.00;94.00;;;;;;4994395;28;20515;-80
2022/03/27 09:31:13;;;;;;;13.10;6.93;;;14.20;92.70;;;;;;4994288;28;20421;-80
2022/03/27 09:33:46;;;;;;;16.57;8.20;;;14.30;92.60;;;;;;4994135;28;20469;-80
2022/03/27 09:36:28;;;;;;;13.90;7.60;;;14.40;92.00;;;;;;4999974;28;20430;-80
2022/03/27 09:39:13;;;;;;;14.60;7.80;;;14.50;91.10;;;;;;4981037;28;20528;-78
2022/03/27 09:41:45;;;;;;;13.33;7.17;;;14.60;91.10;;;;;;5006676;28;20408;-79
2022/03/27 09:44:36;;;;;;;14.77;7.73;;;14.60;91.20;;;;;;4990757;28;20444;-77
2022/03/27 09:47:07;;;;;;;15.07;7.57;;;14.70;91.40;;;;;;4991161;28;20413;-77
2022/03/27 09:49:34;;;;;;;13.70;7.30;;;14.80;91.50;;;;;;4992037;28;20503;-77
2022/03/27 09:52:01;;;;;;;12.93;7.53;;;15.00;90.90;;;;;;5007406;28;21136;-77
2022/03/27 09:54:29;;;;;;;12.13;6.90;;;15.00;90.40;;;;;;5006852;28;20559;-77
2022/03/27 09:56:55;;;;;;;14.57;7.00;;;15.10;90.70;;;;;;4995583;28;20421;-78
2022/03/27 09:59:31;;;;;;;16.17;7.77;;;15.30;90.10;;;;;;5006385;28;20971;-78
2022/03/27 10:02:17;;;;;;;13.10;7.40;;;15.40;89.00;;;;;;4988064;28;20420;-78
2022/03/27 10:05:05;;;;;;;13.70;7.10;;;15.40;87.10;;;;;;5004375;28;20550;-78
2022/03/27 10:07:39;;;;;;;11.93;6.97;;;15.30;88.40;;;;;;4988077;28;21000;-78
2022/03/27 10:10:07;;;;;;;14.83;7.30;;;15.30;88.30;;;;;;4989611;28;20413;-78
2022/03/27 10:12:35;;;;;;;15.73;8.40;;;15.40;87.50;;;;;;4991160;28;20460;-78
2022/03/27 10:15:04;;;;;;;13.63;7.13;;;15.40;87.90;;;;;;5010246;28;20444;-78
2022/03/27 10:17:33;;;;;;;11.70;6.57;;;15.30;88.10;;;;;;4993517;28;20476;-78
2022/03/27 10:20:13;;;;;;;13.43;5.80;;;15.30;87.50;;;;;;4992373;28;20412;-78
2022/03/27 10:22:42;;;;;;;12.13;6.00;;;15.20;86.70;;;;;;4993687;28;20431;-79
2022/03/27 10:25:10;;;;;;;8.97;5.67;;;15.10;85.90;;;;;;4993956;28;20417;-79
2022/03/27 10:27:37;;;;;;;8.63;5.80;;;15.00;86.60;;;;;;4994353;28;20787;-78
2022/03/27 10:30:05;;;;;;;10.57;6.07;;;15.00;85.90;;;;;;4992888;28;20425;-78
2022/03/27 10:32:32;;;;;;;11.50;5.87;;;15.20;86.30;;;;;;4993886;28;20456;-78
2022/03/27 10:35:23;;;;;;;9.70;5.47;;;15.40;86.50;;;;;;4993259;28;21252;-78
2022/03/27 10:38:07;;;;;;;11.03;5.93;;;15.60;86.20;;;;;;4992655;28;20413;-78
2022/03/27 10:40:52;;;;;;;10.60;6.23;;;15.60;85.20;;;;;;4992704;28;20411;-78
2022/03/27 10:43:23;;;;;;;10.83;6.00;;;15.80;85.40;;;;;;4992357;28;20436;-77
2022/03/27 10:46:15;;;;;;;8.93;5.33;;;15.70;85.00;;;;;;4992725;28;20416;-78
2022/03/27 10:48:42;;;;;;;10.70;6.50;;;15.70;84.60;;;;;;4993046;28;20419;-79
2022/03/27 10:51:10;;;;;;;8.97;5.23;;;15.70;85.60;;;;;;4992277;28;20437;-79
2022/03/27 10:53:35;;;;;;;8.73;5.00;;;15.70;84.10;;;;;;4992250;28;20551;-79
2022/03/27 10:56:03;;;;;;;7.70;4.70;;;15.80;84.40;;;;;;4993094;28;20567;-78
2022/03/27 10:58:41;;;;;;;8.23;5.13;;;15.90;84.40;;;;;;4992679;28;20225;-79
2022/03/27 11:01:22;;;;;;;8.87;4.67;;;15.90;83.80;;;;;;4992307;28;20439;-79
2022/03/27 11:04:04;;;;;;;7.40;5.00;;;16.00;83.60;;;;;;4992343;28;20955;-79
2022/03/27 11:06:31;;;;;;;8.83;5.10;;;16.10;84.20;;;;;;4992318;28;20433;-79
2022/03/27 11:08:59;;;;;;;10.50;5.43;;;16.20;83.30;;;;;;4992250;28;20412;-79
2022/03/27 11:11:34;;;;;;;9.10;5.20;;;16.30;83.50;;;;;;5009782;28;20486;-81
2022/03/27 11:14:00;;;;;;;11.17;5.57;;;16.50;83.50;;;;;;4993818;28;20503;-81
2022/03/27 11:16:26;;;;;;;10.77;4.90;;;16.60;82.10;;;;;;4993851;28;20425;-81
2022/03/27 11:18:51;;;;;;;8.17;4.53;;;16.70;83.10;;;;;;4994409;28;20549;-81
2022/03/27 11:21:26;;;;;;;10.80;4.50;;;16.80;81.50;;;;;;4994043;28;20185;-81
2022/03/27 11:24:15;;;;;;;10.20;4.83;;;16.80;81.90;;;;;;4993397;28;20197;-81
2022/03/27 11:26:41;;;;;;;6.87;5.00;;;16.80;81.00;;;;;;4993348;28;20428;-81
2022/03/27 11:29:10;;;;;;;8.00;4.63;;;16.90;80.90;;;;;;4993766;28;20433;-81
2022/03/27 11:31:37;;;;;;;7.43;5.37;;;16.90;81.70;;;;;;4993621;28;20504;-81
2022/03/27 11:34:09;;;;;;;7.10;4.50;;;17.00;81.20;;;;;;4993286;28;20473;-81
2022/03/27 11:36:36;;;;;;;9.07;5.00;;;17.00;80.30;;;;;;4993457;28;20428;-81
2022/03/27 11:39:08;;;;;;;7.63;4.40;;;17.20;81.00;;;;;;4993162;28;20424;-82
2022/03/27 11:41:34;;;;;;;7.57;4.53;;;17.30;81.10;;;;;;4993238;28;20432;-81
2022/03/27 11:47:11;;;;;;;8.73;4.17;;;17.60;80.70;;;;;;4994916;28;20209;-81
2022/03/27 11:49:41;;;;;;;8.90;5.57;;;17.80;78.10;;;;;;4993475;28;20425;-81
2022/03/27 11:52:15;;;;;;;8.70;5.13;;;17.80;79.10;;;;;;4994875;28;20417;-80
2022/03/27 11:54:41;;;;;;;7.77;5.30;;;17.80;79.10;;;;;;4993532;28;20579;-80
2022/03/27 11:57:07;;;;;;;10.30;5.63;;;17.80;79.40;;;;;;4993727;28;20455;-80
2022/03/27 11:59:47;;;;;;;9.77;5.50;;;17.90;80.10;;;;;;4993347;28;20561;-81
2022/03/27 12:02:14;;;;;;;8.63;4.97;;;18.00;79.80;;;;;;4993055;28;20416;-80
2022/03/27 12:04:55;;;;;;;8.10;4.83;;;18.10;80.10;;;;;;4992960;28;20477;-81
2022/03/27 12:07:25;;;;;;;8.83;4.60;;;18.30;79.60;;;;;;4993329;28;20590;-81
2022/03/27 12:09:59;;;;;;;10.03;4.73;;;18.50;78.30;;;;;;4993423;28;20417;-81
2022/03/27 12:12:27;;;;;;;7.93;4.90;;;18.50;78.20;;;;;;4994240;28;20405;-81
2022/03/27 12:14:56;;;;;;;9.30;4.97;;;18.50;78.30;;;;;;4993014;28;20445;-80
2022/03/27 12:17:23;;;;;;;8.50;4.80;;;18.40;76.90;;;;;;4989402;28;20464;-80
2022/03/27 12:19:59;;;;;;;8.30;4.90;;;18.00;78.10;;;;;;4994755;28;20429;-81
2022/03/27 12:22:53;;;;;;;7.47;4.90;;;18.10;79.90;;;;;;4998505;28;20456;-79
2022/03/27 12:25:20;;;;;;;11.13;6.57;;;18.20;79.50;;;;;;4985422;28;20421;-79
2022/03/27 12:30:43;;;;;;;11.30;5.87;;;18.30;78.10;;;;;;4987720;28;20435;-80
2022/03/27 12:33:08;;;;;;;13.40;5.93;;;18.40;77.10;;;;;;4983124;28;20953;-80
2022/03/27 12:35:34;;;;;;;9.20;5.90;;;18.10;77.80;;;;;;4994654;28;20471;-79
2022/03/27 12:38:00;;;;;;;8.37;5.10;;;18.50;78.70;;;;;;4994326;28;20178;-80
2022/03/27 12:40:27;;;;;;;9.10;5.77;;;19.00;77.30;;;;;;4994683;28;20662;-80
2022/03/27 12:42:54;;;;;;;10.30;5.80;;;19.20;77.30;;;;;;4992446;28;20205;-80
2022/03/27 12:45:35;;;;;;;9.10;5.70;;;19.20;76.70;;;;;;4992710;28;20427;-81
2022/03/27 12:48:13;;;;;;;10.77;6.50;;;19.40;75.80;;;;;;4992000;28;20544;-80
2022/03/27 12:50:51;;;;;;;10.73;6.30;;;19.10;76.30;;;;;;4990519;28;20771;-79
2022/03/27 12:53:23;;;;;;;9.47;5.60;;;18.90;76.80;;;;;;4981557;28;20859;-80
2022/03/27 12:55:59;;;;;;;9.63;5.50;;;18.60;78.50;;;;;;4991467;28;20704;-80
2022/03/27 12:58:39;;;;;;;7.80;5.20;;;18.30;78.80;;;;;;5000385;28;20466;-80